createdAt,value
2023-04-18T00:00:06.934Z,100152.22
2023-04-18T00:03:15.856Z,100148.22
2023-04-18T00:06:19.349Z,100121.63
2023-04-18T00:09:21.645Z,100151.63
2023-04-18T00:12:23.911Z,100156.41
2023-04-18T00:15:26.167Z,100153.16
2023-04-18T00:18:28.491Z,100161.00
2023-04-18T00:21:31.901Z,100164.44
2023-04-18T00:24:34.151Z,100161.44
2023-04-18T00:27:37.682Z,100163.81
2023-04-18T00:30:40.004Z,100159.22
2023-04-18T00:33:42.336Z,100162.38
2023-04-18T00:36:44.593Z,100164.38
2023-04-18T00:39:46.851Z,100150.97
2023-04-18T00:42:49.091Z,100171.16
2023-04-18T00:45:51.424Z,100174.34
2023-04-18T00:48:53.675Z,100172.16
2023-04-18T00:51:56.033Z,100166.16
2023-04-18T00:54:58.726Z,100166.59
2023-04-18T00:58:00.941Z,100176.56
2023-04-18T01:01:03.265Z,100172.38
2023-04-18T01:04:06.893Z,100166.00
2023-04-18T01:07:09.423Z,100161.97
2023-04-18T01:10:11.678Z,100168.38
2023-04-18T01:13:14.652Z,100159.97
2023-04-18T01:16:16.902Z,100166.75
2023-04-18T01:19:19.255Z,100174.56
2023-04-18T01:22:21.602Z,100164.16
2023-04-18T01:25:23.884Z,100166.75
2023-04-18T01:28:27.765Z,100131.41
2023-04-18T01:31:34.669Z,100169.34
2023-04-18T01:34:36.984Z,100156.59
2023-04-18T01:37:41.531Z,100161.78
2023-04-18T01:40:43.867Z,100167.03
2023-04-18T01:43:46.235Z,100174.59
2023-04-18T01:46:48.529Z,100166.81
2023-04-18T01:49:50.847Z,100176.81
2023-04-18T01:52:53.111Z,100178.00
2023-04-18T01:55:55.440Z,100181.00
2023-04-18T01:58:57.756Z,100181.59
2023-04-18T02:02:00.107Z,100175.00
2023-04-18T02:05:02.550Z,100168.00
2023-04-18T02:08:05.447Z,100177.22
2023-04-18T02:11:07.705Z,100184.03
2023-04-18T02:14:10.535Z,100177.00
2023-04-18T02:17:12.783Z,100181.03
2023-04-18T02:20:15.779Z,100183.44
2023-04-18T02:23:18.366Z,100181.25
2023-04-18T02:26:20.685Z,100182.03
2023-04-18T02:29:23.534Z,100190.66
2023-04-18T02:32:26.027Z,100187.63
2023-04-18T02:35:28.871Z,100189.47
2023-04-18T02:38:31.843Z,100184.63
2023-04-18T02:41:37.533Z,100187.84
2023-04-18T02:44:39.762Z,100175.63
2023-04-18T02:47:53.844Z,100175.63
2023-04-18T02:51:03.467Z,100172.78
2023-04-18T02:54:06.933Z,100173.81
2023-04-18T02:57:24.020Z,100172.22
2023-04-18T03:00:37.729Z,100185.25
2023-04-18T03:03:45.886Z,100176.47
2023-04-18T03:07:09.031Z,100189.84
2023-04-18T03:10:14.150Z,100184.84
2023-04-18T03:13:17.048Z,100184.03
2023-04-18T03:16:19.640Z,100183.66
2023-04-18T03:19:21.979Z,100161.25
2023-04-18T03:22:25.895Z,100191.47
2023-04-18T03:25:31.403Z,100188.22
2023-04-18T03:28:34.378Z,100189.25
2023-04-18T03:31:36.816Z,100186.06
2023-04-18T03:34:39.115Z,100197.88
2023-04-18T03:37:43.372Z,100203.66
2023-04-18T03:40:46.351Z,100203.25
2023-04-18T03:43:56.738Z,100193.44
2023-04-18T03:46:58.993Z,100200.84
2023-04-18T03:50:02.358Z,100196.84
2023-04-18T03:53:05.659Z,100204.09
2023-04-18T03:56:11.278Z,100213.84
2023-04-18T03:59:26.199Z,100205.63
2023-04-18T04:02:28.646Z,100206.88
2023-04-18T04:05:30.958Z,100214.66
2023-04-18T04:08:33.442Z,100219.88
2023-04-18T04:11:36.088Z,100221.66
2023-04-18T04:14:39.498Z,100235.25
2023-04-18T04:17:41.897Z,100233.03
2023-04-18T04:20:45.833Z,100239.25
2023-04-18T04:23:53.098Z,100242.63
2023-04-18T04:27:05.200Z,100252.91
2023-04-18T04:30:13.205Z,100245.25
2023-04-18T04:33:16.508Z,100248.69
2023-04-18T04:36:19.537Z,100253.44
2023-04-18T04:39:24.499Z,100242.59
2023-04-18T04:42:56.189Z,100255.13
2023-04-18T04:46:05.520Z,100251.38
2023-04-18T04:49:08.064Z,100251.44
2023-04-18T04:52:10.588Z,100254.25
2023-04-18T04:55:12.905Z,100258.06
2023-04-18T04:58:16.555Z,100268.28
2023-04-18T05:01:34.664Z,100264.91
2023-04-18T05:04:37.093Z,100265.06
2023-04-18T05:07:39.421Z,100265.88
2023-04-18T05:10:43.173Z,100262.06
2023-04-18T05:13:45.427Z,100276.50
2023-04-18T05:16:47.757Z,100275.09
2023-04-18T05:19:50.028Z,100273.44
2023-04-18T05:22:52.377Z,100279.25
2023-04-18T05:25:54.622Z,100279.25
2023-04-18T05:28:56.843Z,100290.47
2023-04-18T05:31:59.101Z,100294.06
2023-04-18T05:35:01.366Z,100301.91
2023-04-18T05:38:03.592Z,100297.47
2023-04-18T05:41:07.253Z,100302.28
2023-04-18T05:44:09.548Z,100307.09
2023-04-18T05:47:11.818Z,100297.31
2023-04-18T05:50:14.177Z,100305.09
2023-04-18T05:53:16.377Z,100312.72
2023-04-18T05:56:18.639Z,100264.47
2023-04-18T05:59:20.982Z,100313.13
2023-04-18T06:02:23.390Z,100313.72
2023-04-18T06:05:26.287Z,100320.13
2023-04-18T06:08:28.799Z,100316.31
2023-04-18T06:11:35.761Z,100317.31
2023-04-18T06:14:38.138Z,100328.53
2023-04-18T06:17:40.458Z,100313.50
2023-04-18T06:20:44.020Z,100325.50
2023-04-18T06:23:47.557Z,100312.50
2023-04-18T06:26:49.869Z,100327.13
2023-04-18T06:29:52.094Z,100329.72
2023-04-18T06:32:54.358Z,100327.94
2023-04-18T06:35:56.853Z,100328.94
2023-04-18T06:38:59.108Z,100330.72
2023-04-18T06:42:02.516Z,100335.53
2023-04-18T06:45:06.480Z,100338.34
2023-04-18T06:48:10.701Z,100335.75
2023-04-18T06:51:13.164Z,100347.31
2023-04-18T06:54:15.561Z,100340.94
2023-04-18T06:57:17.906Z,100350.94
2023-04-18T07:00:20.447Z,100353.94
2023-04-18T07:03:22.948Z,100339.53
2023-04-18T07:06:26.223Z,100353.94
2023-04-18T07:09:28.548Z,100350.94
2023-04-18T07:12:30.847Z,100340.53
2023-04-18T07:15:34.855Z,100353.53
2023-04-18T07:18:38.366Z,100357.56
2023-04-18T07:21:42.980Z,100356.94
2023-04-18T07:24:45.324Z,100353.16
2023-04-18T07:27:47.995Z,100356.34
2023-04-18T07:30:50.333Z,100358.34
2023-04-18T07:33:52.658Z,100360.53
2023-04-18T07:36:54.921Z,100353.13
2023-04-18T07:39:57.243Z,100348.31
2023-04-18T07:42:59.503Z,100364.53
2023-04-18T07:46:01.915Z,100368.34
2023-04-18T07:49:04.748Z,100363.72
2023-04-18T07:52:07.112Z,100380.75
2023-04-18T07:55:09.600Z,100382.19
2023-04-18T07:58:11.935Z,100381.97
2023-04-18T08:01:15.577Z,100382.19
2023-04-18T08:04:18.003Z,100395.78
2023-04-18T08:07:20.415Z,100393.59
2023-04-18T08:10:23.822Z,100387.56
2023-04-18T08:13:26.220Z,100396.16
2023-04-18T08:16:28.725Z,100397.75
2023-04-18T08:19:30.968Z,100388.09
2023-04-18T08:22:33.443Z,100388.91
2023-04-18T08:25:36.558Z,100390.88
2023-04-18T08:28:38.957Z,100392.66
2023-04-18T08:31:41.249Z,100397.28
2023-04-18T08:34:43.519Z,100398.63
2023-04-18T08:37:45.769Z,100402.06
2023-04-18T08:40:48.024Z,100389.63
2023-04-18T08:43:50.317Z,100397.56
2023-04-18T08:46:53.004Z,100383.13
2023-04-18T08:49:55.530Z,100403.13
2023-04-18T08:52:59.167Z,100403.53
2023-04-18T08:56:01.612Z,100402.69
2023-04-18T08:59:04.050Z,100402.91
2023-04-18T09:02:08.767Z,100417.16
2023-04-18T09:05:16.351Z,100413.97
2023-04-18T09:08:24.018Z,100412.56
2023-04-18T09:11:28.927Z,100421.81
2023-04-18T09:14:32.607Z,100424.78
2023-04-18T09:17:53.453Z,100415.38
2023-04-18T09:20:56.963Z,100394.16
2023-04-18T09:24:34.335Z,100433.53
2023-04-18T09:27:36.567Z,100425.69
2023-04-18T09:30:40.531Z,100428.88
2023-04-18T09:33:52.819Z,100430.28
2023-04-18T09:37:11.645Z,100425.28
2023-04-18T09:40:20.374Z,100434.69
2023-04-18T09:43:22.668Z,100430.69
2023-04-18T09:46:25.366Z,100430.06
2023-04-18T09:49:27.748Z,100431.25
2023-04-18T09:52:35.331Z,100440.06
2023-04-18T09:55:37.581Z,100425.22
2023-04-18T09:58:41.226Z,100426.28
2023-04-18T10:01:48.636Z,100429.13
2023-04-18T10:04:51.701Z,100438.75
2023-04-18T10:07:54.538Z,100436.50
2023-04-18T10:10:58.654Z,100436.09
2023-04-18T10:14:06.955Z,100439.91
2023-04-18T10:17:10.083Z,100428.31
2023-04-18T10:20:17.414Z,100437.16
2023-04-18T10:23:32.130Z,100445.56
2023-04-18T10:26:47.158Z,100441.00
2023-04-18T10:29:53.190Z,100443.44
2023-04-18T10:32:55.491Z,100436.97
2023-04-18T10:36:07.678Z,100443.81
2023-04-18T10:39:22.932Z,100420.38
2023-04-18T10:42:46.674Z,100440.78
2023-04-18T10:46:20.424Z,100441.81
2023-04-18T11:05:23.071Z,100445.44
2023-04-18T11:08:25.523Z,100444.84
2023-04-18T11:11:27.862Z,100448.31
2023-04-18T11:14:40.702Z,100430.88
2023-04-18T11:17:43.377Z,100445.25
2023-04-18T11:20:50.062Z,100445.44
2023-04-18T11:23:52.320Z,100414.25
2023-04-18T11:26:55.891Z,100445.25
2023-04-18T11:29:58.491Z,100455.88
2023-04-18T11:33:05.271Z,100436.25
2023-04-18T11:36:08.029Z,100440.19
2023-04-18T11:39:10.583Z,100443.56
2023-04-18T11:42:12.876Z,100446.59
2023-04-18T11:45:15.322Z,100443.84
2023-04-18T11:48:17.588Z,100435.00
2023-04-18T11:51:35.954Z,100451.41
2023-04-18T11:54:44.800Z,100443.41
2023-04-18T11:58:06.822Z,100440.19
2023-04-18T12:01:19.207Z,100446.56
2023-04-18T12:04:21.939Z,100445.81
2023-04-18T12:07:37.713Z,100453.63
2023-04-18T12:10:53.042Z,100447.81
2023-04-18T12:13:56.636Z,100458.81
2023-04-18T12:16:58.912Z,100440.34
2023-04-18T12:20:02.307Z,100460.81
2023-04-18T12:23:04.734Z,100456.22
2023-04-18T12:26:07.919Z,100458.03
2023-04-18T12:29:10.148Z,100465.66
2023-04-18T12:32:12.459Z,100462.63
2023-04-18T12:35:15.469Z,100457.00
2023-04-18T12:38:19.987Z,100461.63
2023-04-18T12:41:22.196Z,100465.25
2023-04-18T12:44:24.841Z,100459.66
2023-04-18T12:47:27.105Z,100465.25
2023-04-18T12:50:29.408Z,100462.06
2023-04-18T12:53:31.704Z,100452.25
2023-04-18T12:56:33.965Z,100457.25
2023-04-18T12:59:36.216Z,100457.44
2023-04-18T13:02:42.599Z,100430.00
2023-04-18T13:05:44.937Z,100467.44
2023-04-18T13:08:47.972Z,100464.03
2023-04-18T13:11:50.530Z,100457.03
2023-04-18T13:14:52.839Z,100464.19
2023-04-18T13:17:56.429Z,100455.41
2023-04-18T13:20:58.853Z,100461.00
2023-04-18T13:24:01.207Z,100462.56
2023-04-18T13:27:10.223Z,100462.34
2023-04-18T13:30:12.795Z,100452.91
2023-04-18T13:33:15.468Z,100458.09
2023-04-18T13:36:18.012Z,100464.72
2023-04-18T13:39:20.976Z,100461.94
2023-04-18T13:42:23.215Z,100465.28
2023-04-18T13:45:25.577Z,100459.47
2023-04-18T13:48:27.915Z,100463.06
2023-04-18T13:51:31.097Z,100453.19
2023-04-18T13:54:33.392Z,100460.03
2023-04-18T13:57:37.390Z,100450.00
2023-04-18T14:00:39.755Z,100455.88
2023-04-18T14:03:43.693Z,100456.84
2023-04-18T14:06:47.910Z,100448.09
2023-04-18T14:09:53.343Z,100445.28
2023-04-18T14:12:56.218Z,100452.56
2023-04-18T14:15:58.723Z,100450.59
2023-04-18T14:19:01.696Z,100443.47
2023-04-18T14:22:03.908Z,100452.88
2023-04-18T14:25:06.760Z,100438.25
2023-04-18T14:28:11.050Z,100449.06
2023-04-18T14:31:14.188Z,100449.16
2023-04-18T14:34:16.535Z,100454.03
2023-04-18T14:37:18.760Z,100453.09
2023-04-18T14:40:22.122Z,100454.56
2023-04-18T14:43:24.573Z,100449.47
2023-04-18T14:46:28.337Z,100447.38
2023-04-18T14:49:30.721Z,100451.50
2023-04-18T14:52:32.965Z,100460.06
2023-04-18T14:55:35.194Z,100449.66
2023-04-18T14:58:37.466Z,100452.34
2023-04-18T15:01:41.520Z,100450.19
2023-04-18T15:04:44.002Z,100454.38
2023-04-18T15:07:47.001Z,100458.09
2023-04-18T15:10:49.264Z,100450.34
2023-04-18T15:13:51.586Z,100447.91
2023-04-18T15:16:53.940Z,100447.06
2023-04-18T15:19:56.340Z,100437.47
2023-04-18T15:22:58.579Z,100440.06
2023-04-18T15:26:01.028Z,100439.53
2023-04-18T15:29:03.909Z,100442.50
2023-04-18T15:32:06.569Z,100435.88
2023-04-18T15:35:11.993Z,100436.56
2023-04-18T15:38:14.211Z,100442.16
2023-04-18T15:41:16.479Z,100444.38
2023-04-18T15:44:18.705Z,100447.38
2023-04-18T15:47:21.205Z,100441.59
2023-04-18T15:50:23.676Z,100440.41
2023-04-18T15:53:25.926Z,100439.78
2023-04-18T15:56:28.210Z,100447.81
2023-04-18T15:59:30.952Z,100444.06
2023-04-18T16:02:33.210Z,100446.22
2023-04-18T16:05:35.680Z,100439.66
2023-04-18T16:08:37.981Z,100438.84
2023-04-18T16:11:40.234Z,100447.47
2023-04-18T16:14:42.498Z,100440.84
2023-04-18T16:17:44.771Z,100457.13
2023-04-18T16:20:47.178Z,100455.13
2023-04-18T16:23:49.494Z,100457.94
2023-04-18T16:26:53.137Z,100454.72
2023-04-18T16:29:55.802Z,100455.72
2023-04-18T16:32:58.219Z,100455.53
2023-04-18T16:36:02.554Z,100458.53
2023-04-18T16:39:04.791Z,100421.50
2023-04-18T16:42:07.012Z,100455.91
2023-04-18T16:45:09.436Z,100458.16
2023-04-18T16:48:11.755Z,100462.56
2023-04-18T16:51:13.989Z,100467.56
2023-04-18T16:54:16.476Z,100462.56
2023-04-18T16:57:18.854Z,100460.16
2023-04-18T17:00:21.216Z,100470.41
2023-04-18T17:03:23.622Z,100468.97
2023-04-18T17:06:27.289Z,100476.84
2023-04-18T17:09:30.272Z,100472.81
2023-04-18T17:12:32.603Z,100467.81
2023-04-18T17:15:36.044Z,100462.59
2023-04-18T17:18:38.312Z,100468.81
2023-04-18T17:21:40.658Z,100463.81
2023-04-18T17:24:42.922Z,100468.44
2023-04-18T17:27:45.263Z,100475.88
2023-04-18T17:30:47.524Z,100479.28
2023-04-18T17:33:50.816Z,100486.50
2023-04-18T17:36:53.062Z,100476.47
2023-04-18T17:39:57.163Z,100474.88
2023-04-18T17:42:59.384Z,100490.31
2023-04-18T17:46:03.615Z,100483.31
2023-04-18T17:49:06.101Z,100484.91
2023-04-18T17:52:08.390Z,100460.03
2023-04-18T17:55:10.649Z,100490.09
2023-04-18T17:58:12.942Z,100487.69
2023-04-18T18:01:18.928Z,100487.06
2023-04-18T18:04:24.905Z,100492.28
2023-04-18T18:07:28.694Z,100483.91
2023-04-18T18:10:31.711Z,100497.72
2023-04-18T18:13:34.195Z,100484.13
2023-04-18T18:16:38.451Z,100502.53
2023-04-18T18:19:40.723Z,100498.53
2023-04-18T18:22:43.331Z,100502.94
2023-04-18T18:25:45.565Z,100503.94
2023-04-18T18:28:47.819Z,100502.34
2023-04-18T18:31:50.336Z,100495.13
2023-04-18T18:34:52.950Z,100503.75
2023-04-18T18:37:55.178Z,100500.94
2023-04-18T18:40:57.462Z,100503.16
2023-04-18T18:43:59.691Z,100509.75
2023-04-18T18:47:02.059Z,100482.50
2023-04-18T18:50:04.526Z,100504.34
2023-04-18T18:53:06.808Z,100496.75
2023-04-18T18:56:09.125Z,100496.34
2023-04-18T18:59:11.614Z,100503.75
2023-04-18T19:02:13.987Z,100505.75
2023-04-18T19:05:17.425Z,100504.34
2023-04-18T19:08:19.915Z,100482.72
2023-04-18T19:11:22.179Z,100506.97
2023-04-18T19:14:24.438Z,100516.56
2023-04-18T19:17:26.949Z,100510.16
2023-04-18T19:20:29.368Z,100494.72
2023-04-18T19:23:31.642Z,100493.31
2023-04-18T19:26:33.918Z,100498.75
2023-04-18T19:29:36.301Z,100492.72
2023-04-18T19:32:38.608Z,100503.94
2023-04-18T19:35:41.398Z,100501.53
2023-04-18T19:38:43.673Z,100513.75
2023-04-18T19:41:46.131Z,100507.94
2023-04-18T19:44:48.431Z,100504.94
2023-04-18T19:47:50.829Z,100517.16
2023-04-18T19:50:53.201Z,100498.09
2023-04-18T19:53:55.701Z,100511.94
2023-04-18T19:56:58.735Z,100510.16
2023-04-18T20:00:01.408Z,100507.50
2023-04-18T20:03:03.967Z,100516.56
2023-04-18T20:06:06.742Z,100479.09
2023-04-18T20:09:15.372Z,100501.13
2023-04-18T20:12:17.833Z,100514.94
2023-04-18T20:15:20.082Z,100506.94
2023-04-18T20:18:24.020Z,100503.94
2023-04-18T20:21:26.650Z,100504.69
2023-04-18T20:24:31.693Z,100500.13
2023-04-18T20:27:33.997Z,100502.50
2023-04-18T20:30:36.923Z,100492.09
2023-04-18T20:33:39.172Z,100499.91
2023-04-18T20:36:41.674Z,100496.91
2023-04-18T20:39:44.006Z,100500.13
2023-04-18T20:42:46.857Z,100495.47
2023-04-18T20:45:51.531Z,100489.69
2023-04-18T20:48:53.874Z,100483.28
2023-04-18T20:51:56.199Z,100495.69
2023-04-18T20:54:58.454Z,100492.31
2023-04-18T20:58:00.708Z,100486.84
2023-04-18T21:01:03.017Z,100482.06
2023-04-18T21:04:05.435Z,100497.09
2023-04-18T21:07:07.783Z,100487.66
2023-04-18T21:10:10.234Z,100495.50
2023-04-18T21:13:12.681Z,100510.06
2023-04-18T21:16:15.085Z,100494.47
2023-04-18T21:19:17.429Z,100498.47
2023-04-18T21:22:19.806Z,100497.66
2023-04-18T21:25:22.080Z,100509.88
2023-04-18T21:28:24.329Z,100511.09
2023-04-18T21:31:27.138Z,100500.44
2023-04-18T21:34:29.450Z,100509.06
2023-04-18T21:37:31.958Z,100508.25
2023-04-18T21:40:34.165Z,100496.25
2023-04-18T21:43:36.476Z,100501.47
2023-04-18T21:46:38.734Z,100495.41
2023-04-18T21:49:41.802Z,100503.00
2023-04-18T21:52:44.077Z,100495.28
2023-04-18T21:55:46.783Z,100496.22
2023-04-18T21:58:49.246Z,100499.88
2023-04-18T22:01:51.509Z,100500.81
2023-04-18T22:04:53.785Z,100498.63
2023-04-18T22:07:58.507Z,100502.00
2023-04-18T22:11:01.098Z,100498.75
2023-04-18T22:14:03.360Z,100505.56
2023-04-18T22:17:05.685Z,100499.59
2023-04-18T22:20:08.468Z,100488.69
2023-04-18T22:23:11.047Z,100493.28
2023-04-18T22:26:13.372Z,100497.66
2023-04-18T22:29:15.640Z,100486.59
2023-04-18T22:32:18.083Z,100489.81
2023-04-18T22:35:20.406Z,100494.19
2023-04-18T22:38:22.652Z,100489.09
2023-04-18T22:41:24.909Z,100490.31
2023-04-18T22:44:27.122Z,100489.06
2023-04-18T22:47:29.387Z,100485.84
2023-04-18T22:50:31.650Z,100478.25
2023-04-18T22:53:33.839Z,100479.72
2023-04-18T22:56:36.047Z,100471.16
2023-04-18T22:59:38.279Z,100469.53
2023-04-18T23:02:40.819Z,100467.81
2023-04-18T23:05:43.129Z,100457.78
2023-04-18T23:08:45.473Z,100433.06
2023-04-18T23:11:47.761Z,100469.66
2023-04-18T23:14:49.979Z,100461.13
2023-04-18T23:17:53.156Z,100459.28
2023-04-18T23:20:55.519Z,100461.91
2023-04-18T23:23:57.987Z,100456.91
2023-04-18T23:27:01.528Z,100451.13
2023-04-18T23:30:04.056Z,100435.09
2023-04-18T23:33:06.643Z,100438.50
2023-04-18T23:36:09.199Z,100441.13
2023-04-18T23:39:11.875Z,100451.63
2023-04-18T23:42:14.184Z,100439.63
2023-04-18T23:45:16.566Z,100436.13
2023-04-18T23:48:18.790Z,100440.47
2023-04-18T23:51:21.050Z,100438.44
2023-04-18T23:54:23.355Z,100429.34
2023-04-18T23:57:25.597Z,100423.53
